»·PEaware :: N792VA KBWC-KCRQ

N792VA :: KBWC-KCRQ

FLIGHT INFORMATION

Flight Status: Arrived
Operator: Privately registered:
United States
More flights under this callsign
Pilot: Scott M. (16181)
Aircraft: Unknown
(P28U)
More flights by this aircraft type
Origin: KBWC Brawley Mun
United States
Destination: KCRQ McClellan-Palomar
United States
More flights between these airports :: More routes between these airports
Route: +
File this flight plan on PilotEdge
Remarks:
Altitude:
(Current/Filed)
8,500ft
Speed:
(Current/Filed)
160kts
Departed: 06-Jun-18 04:36 PM
Arrived: 06-Jun-18 05:22 PM
Distance/Time
Traveled:
89nm/0:46
Distance/Time
To Go:
Arrived

Flight Plot

Page will automatically refresh every two minutes.

Flight plan parsing failed; only flown route is shown


Map Options




Map Legend


Flown Route
Filed Route
Departure Airport
Arrival Airport
Navaid (VOR, NDB)
Fix

Horizontal Profiles

Position Reports

Time Latitude Longitude Heading Altitude Ground
Speed
06-Jun-18 16:27 32.991303 -115.514152 359 -120ft 0kts
06-Jun-18 16:28 32.991303 -115.514152 359 -120ft 0kts
06-Jun-18 16:29 32.991303 -115.514152 359 -120ft 0kts
06-Jun-18 16:30 32.991303 -115.514152 359 -120ft 0kts
06-Jun-18 16:31 32.991303 -115.514152 359 -120ft 0kts
06-Jun-18 16:32 32.991358 -115.514144 11 -120ft 3kts
06-Jun-18 16:33 32.992263 -115.511898 88 -121ft 10kts
06-Jun-18 16:34 32.992496 -115.509767 8 -124ft 0kts
06-Jun-18 16:35 32.992910 -115.509987 285 -124ft 11kts
06-Jun-18 16:36 32.995165 -115.533992 317 456ft 104kts
06-Jun-18 16:37 33.015578 -115.554160 298 1753ft 108kts
06-Jun-18 16:38 33.030646 -115.582611 303 2856ft 111kts
06-Jun-18 16:39 33.048036 -115.613175 302 4003ft 114kts
06-Jun-18 16:40 33.066141 -115.644848 301 5084ft 117kts
06-Jun-18 16:41 33.084341 -115.676806 300 6136ft 116kts
06-Jun-18 16:42 33.102083 -115.707942 299 7118ft 116kts
06-Jun-18 16:43 33.120421 -115.740065 299 8030ft 118kts
06-Jun-18 16:44 33.139719 -115.774030 299 8545ft 143kts
06-Jun-18 16:45 33.163435 -115.815466 300 8521ft 153kts
06-Jun-18 16:46 33.187365 -115.857540 300 8517ft 153kts
06-Jun-18 16:47 33.211250 -115.899599 300 8511ft 153kts
06-Jun-18 16:48 33.235115 -115.941672 300 8505ft 153kts
06-Jun-18 16:49 33.235482 -115.988774 256 8503ft 145kts
06-Jun-18 16:50 33.228488 -116.034157 255 8502ft 145kts
06-Jun-18 16:51 33.221206 -116.080854 0 8500ft 0kts
06-Jun-18 16:52 33.213831 -116.127773 255 8499ft 145kts
06-Jun-18 16:53 33.206378 -116.175078 255 8501ft 144kts
06-Jun-18 16:54 33.198952 -116.222059 255 8523ft 143kts
06-Jun-18 16:56 33.184309 -116.314368 256 8580ft 141kts
06-Jun-18 16:57 33.176981 -116.360394 256 8614ft 140kts
06-Jun-18 16:58 33.169547 -116.406987 257 8467ft 147kts
06-Jun-18 16:59 33.162134 -116.453421 257 8483ft 140kts
06-Jun-18 17:00 33.154807 -116.499088 257 8501ft 139kts
06-Jun-18 17:01 33.148725 -116.536934 258 8513ft 139kts
06-Jun-18 17:02 33.141448 -116.582227 258 8162ft 141kts
06-Jun-18 17:03 33.140248 -116.629310 268 7653ft 143kts
06-Jun-18 17:04 33.139574 -116.675740 267 7041ft 142kts
06-Jun-18 17:05 33.138692 -116.721937 267 6611ft 134kts
06-Jun-18 17:06 33.137918 -116.764776 267 6535ft 124kts
06-Jun-18 17:07 33.137249 -116.805411 267 6536ft 122kts
06-Jun-18 17:08 33.136585 -116.846293 267 6351ft 125kts
06-Jun-18 17:09 33.135876 -116.888699 267 5840ft 132kts
06-Jun-18 17:10 33.135127 -116.932126 267 5221ft 131kts
06-Jun-18 17:11 33.134434 -116.976280 267 4513ft 130kts
06-Jun-18 17:12 33.133680 -117.013515 266 4540ft 108kts
06-Jun-18 17:13 33.133094 -117.049032 270 4538ft 107kts
06-Jun-18 17:14 33.138981 -117.084529 280 4188ft 105kts
06-Jun-18 17:15 33.144344 -117.116377 275 3004ft 102kts
06-Jun-18 17:16 33.147542 -117.143213 266 1866ft 95kts
06-Jun-18 17:17 33.145676 -117.170499 259 1514ft 87kts
06-Jun-18 17:18 33.141482 -117.197545 254 1747ft 74kts
06-Jun-18 17:19 33.137185 -117.223040 257 1459ft 74kts
06-Jun-18 17:20 33.133768 -117.246098 256 964ft 67kts
06-Jun-18 17:21 33.130142 -117.268395 257 427ft 65kts
06-Jun-18 17:22 33.127871 -117.279529 220 308ft 0kts
06-Jun-18 17:23 33.127871 -117.279530 220 308ft 0kts
06-Jun-18 17:24 33.127584 -117.279378 100 308ft 8kts

Navigation Log

Ident Type
Flight plan parsing failed, navigation log unavailable